Alpine Haven, Vermont
Current Conditions -  °F | °C
As of 5:35 PM on Wednesday 22 Oct 2014 (Local Time) from KEFK Reporting Station
Overcast Overcast  
Wind Chill: 10°   Ceiling: 5500
Heat Index: 10°   Visibility: 10mi
Dew Point:   Wind: 12mph
Humidity: 70%   Direction: 10°N
Pressure: 30.17"   Gusts: NA
Location:  44.8557°N, 72.6016°W
Report Text: KEFK 222135Z AUTO 01010KT 10SM OVC055 10/05 A3017 RMK AO2 T01000048
Loading
Personal Weather Stations






























Interactive Weather Map New forecast layout! Learn more

10-Day Weather Forecast

Advertisements
Track Severe Weather on mobile